CWYO2: Chewey Road

Data processed at Fri Jun 05 2020 22:35


All information presented herein is the property of the government of the United States of America and may be revised or deleted at any time without prior notice.
Dissemination of this information without the expressed written consent of the Public Affairs Office, Tulsa District U.S. Army Corps of Engineers is strictly prohibited.
These data are gathered electronically and, as presented, have not undergone any form of quality control. These data are not guaranteed to be valid or correct.
Go to home page.
Go to station list.
Go to home page.

Upstream stations:

Downstream station:
Previous Day
Next Day
Current Day
    
SHEF ID:       CWYO2     Illinois River at Chewey, OK
STATION TYPE:  
Regulating: Stage =    12.00, Flow =    13296

               PRECIP     STAGE  STAGE(2)  RIV-FLOW  BAT-LOAD
                   in        ft        ft       cfs      volt
              Ccp-Rev   Ccp-Rev   Ccp-Rev   Ccp-Rev   Ccp-Rev
(US/Central)
06/05 00:00      0.00      5.56      5.54      1439     12.60
06/05 01:00      0.00      5.66      5.63      1560     12.54
06/05 02:00      0.00      5.90      5.89      1868     12.54
06/05 03:00      0.00      6.21      6.17      2301     12.54
06/05 04:00      0.00      6.44      6.37      2642     12.54
06/05 05:00      0.00      6.56      6.52      2821     12.54
06/05 06:00      0.00      6.61      6.57      2896     12.54
06/05 07:00      0.00      6.59      6.55      2866     12.54
06/05 08:00      0.00      6.52      6.50      2761     12.54
06/05 09:00      0.00      6.46      6.43      2671     12.60
06/05 10:00      0.00      6.39      6.35      2567     12.65
06/05 11:00      0.00      6.31      6.29      2448     12.89
06/05 12:00      0.00      6.25      6.22      2359     12.83
06/05 13:00      0.00      6.19      6.15      2272     12.95
06/05 14:00      0.00      6.13      6.08      2187     12.83
06/05 15:00      0.00      6.05      6.04      2074     12.71
06/05 16:00      0.00      6.01      5.98      2018     13.30
06/05 17:00      0.00      5.97      5.95      1962     12.77
06/05 18:00      0.00      5.94      5.90      1921     12.95
06/05 19:00      0.00      5.89      5.86      1855     12.71
06/05 20:00      0.00      5.86      5.84      1814     12.65
06/05 21:00      0.00      5.83      5.81      1775     12.60
06/05 22:00      ----      ----      ----      ----      ----
06/05 23:00      ----      ----      ----      ----      ----